Current Conditions
Partly Cloudy
Conditions



Pressure
1014.92 (mb) - 29.97 (inHG)
Visibility

6.2 (miles) - 10.0 (km)
Temperature
14  °C
Temperature
7  °C
Dewpoint
63  %
 Humidity
Wind Speed
16  mph
14  kts
26  km/h
7.2  m/s
Wind Direction
N
45°
E
90°
135°
S
180°
225°
W
270°
315°
 180°

Due South
Airport Data
EGYM
RAF Marham
Metar :EGYM 241350Z AUTO 18014KT 9999 FEW130/// 14/07 Q1015
Sun 24th October 14:50 pm
Raw Metar Info
Raw METAR is the most common format in the world for the transmission of observational weather data. It is highly standardized through the International Civil Aviation Organization (ICAO), which allows it to be understood throughout most of the world.
API Info
Data Provided by
https://www.checkwx.com/weather/EGYM

Aviation Weather providing METAR, TAF, AIRMET, SIGMET and OUTLOOK Weather Reports
© Info
CSS/SVG/PHP scripts were developed by weather34.com for use in the weather34 template © 2015-2021

Guide Info provided by Metar-Wikipedia